GB-0063 weather

Fairway Common Airfield
England, United Kingdom

Public forecast

Using degrees Celsius for public forecast. Weather courtesy of forecast.io.

METAR (pilot weather report)

Closest report is Exeter International Airport, 8.9 nm (16.5 km) W. Retrieved 2019/09/23 19:20 UTC (7 minutes ago):

EGTE 231920Z 18009KT 9999 SCT005 BKN009 17/17 Q1005

TAF (pilot weather forecast)

Forecast is more than 12 hours old.

Closest forecast is Exeter International Airport, 8.9 nm (16.5 km) W. Retrieved 2012/04/19 12:15 UTC (7 years ago):

TAF TAF EGTE 191401Z 1912/1924 31016KT 9999 SCT030 SCT035 PROB40 TEMPO 1915/1918 7000 SHRA BKN014